createdAt,value
2019-06-20T00:00:35.665Z,83.37
2019-06-20T00:03:06.547Z,83.86
2019-06-20T00:05:37.074Z,83.62
2019-06-20T00:08:07.776Z,84.02
2019-06-20T00:10:38.341Z,84.40
2019-06-20T00:13:08.842Z,84.82
2019-06-20T00:15:41.260Z,84.97
2019-06-20T00:18:11.897Z,85.12
2019-06-20T00:20:44.530Z,85.71
2019-06-20T00:23:15.135Z,86.07
2019-06-20T00:25:45.650Z,85.58
2019-06-20T00:28:16.334Z,86.15
2019-06-20T00:30:46.919Z,86.14
2019-06-20T00:33:17.468Z,86.58
2019-06-20T00:35:48.065Z,86.73
2019-06-20T00:38:18.588Z,86.97
2019-06-20T00:40:49.231Z,86.68
2019-06-20T00:43:19.786Z,86.74
2019-06-20T00:45:50.298Z,87.07
2019-06-20T00:48:20.952Z,87.33
2019-06-20T00:50:51.518Z,87.71
2019-06-20T00:53:22.112Z,88.35
2019-06-20T00:55:54.986Z,87.98
2019-06-20T00:58:25.640Z,88.17
2019-06-20T01:00:56.265Z,88.64
2019-06-20T01:03:26.802Z,88.14
2019-06-20T01:05:57.352Z,88.39
2019-06-20T01:08:28.032Z,88.71
2019-06-20T01:10:58.599Z,88.93
2019-06-20T01:13:33.410Z,89.26
2019-06-20T01:16:01.414Z,89.60
2019-06-20T01:18:32.006Z,89.38
2019-06-20T01:21:02.755Z,89.17
2019-06-20T01:23:33.256Z,89.14
2019-06-20T01:26:03.784Z,88.99
2019-06-20T01:28:36.244Z,88.63
2019-06-20T01:31:09.820Z,88.55
2019-06-20T01:33:40.482Z,88.54
2019-06-20T01:36:10.991Z,88.60
2019-06-20T01:38:41.530Z,88.67
2019-06-20T01:41:13.510Z,89.23
2019-06-20T01:43:50.602Z,89.49
2019-06-20T01:46:16.697Z,89.57
2019-06-20T01:48:47.213Z,89.67
2019-06-20T01:51:17.744Z,89.72
2019-06-20T01:53:48.395Z,89.87
2019-06-20T01:56:18.968Z,90.22
2019-06-20T01:58:49.557Z,90.03
2019-06-20T02:01:20.073Z,90.20
2019-06-20T02:03:50.585Z,90.42
2019-06-20T02:06:21.345Z,90.78
2019-06-20T02:08:51.945Z,90.86
2019-06-20T02:11:22.551Z,90.67
2019-06-20T02:14:06.514Z,91.12
2019-06-20T02:16:28.185Z,91.27
2019-06-20T02:18:58.764Z,91.37
2019-06-20T02:21:29.345Z,92.45
2019-06-20T02:23:59.972Z,92.24
2019-06-20T02:26:30.594Z,91.57
2019-06-20T02:29:01.100Z,91.32
2019-06-20T02:31:31.691Z,91.18
2019-06-20T02:34:03.285Z,90.79
2019-06-20T02:36:33.820Z,91.01
2019-06-20T02:39:05.096Z,90.83
2019-06-20T02:41:35.632Z,91.44
2019-06-20T02:44:24.689Z,92.15
2019-06-20T02:46:39.039Z,91.88
2019-06-20T02:49:09.597Z,92.22
2019-06-20T02:51:40.449Z,92.38
2019-06-20T02:54:11.006Z,92.44
2019-06-20T02:56:41.673Z,92.29
2019-06-20T02:59:12.218Z,92.31
2019-06-20T03:01:42.745Z,92.17
2019-06-20T03:04:13.332Z,92.31
2019-06-20T03:06:43.970Z,92.24
2019-06-20T03:09:14.605Z,92.22
2019-06-20T03:11:47.814Z,92.59
2019-06-20T03:14:18.413Z,92.68
2019-06-20T03:16:48.921Z,93.27
2019-06-20T03:19:19.478Z,93.49
2019-06-20T03:21:50.102Z,93.31
2019-06-20T03:24:20.636Z,93.16
2019-06-20T03:26:51.123Z,93.42
2019-06-20T03:29:21.811Z,93.78
2019-06-20T03:31:52.354Z,93.93
2019-06-20T03:34:22.982Z,93.75
2019-06-20T03:36:53.501Z,93.73
2019-06-20T03:39:24.043Z,94.39
2019-06-20T03:41:54.692Z,94.29
2019-06-20T03:44:25.225Z,93.90
2019-06-20T03:46:55.779Z,94.19
2019-06-20T03:49:26.411Z,93.73
2019-06-20T03:51:56.934Z,94.33
2019-06-20T03:54:27.590Z,94.56
2019-06-20T03:56:58.104Z,95.04
2019-06-20T03:59:28.637Z,96.09
2019-06-20T04:02:01.338Z,95.87
2019-06-20T04:04:31.921Z,95.83
2019-06-20T04:07:02.538Z,95.54
2019-06-20T04:09:33.119Z,95.75
2019-06-20T04:12:03.818Z,95.40
2019-06-20T04:14:34.370Z,95.31
2019-06-20T04:17:04.922Z,95.34
2019-06-20T04:19:35.525Z,95.45
2019-06-20T04:22:07.879Z,96.16
2019-06-20T04:24:38.368Z,96.34
2019-06-20T04:27:08.945Z,96.84
2019-06-20T04:29:39.523Z,97.27
2019-06-20T04:32:10.117Z,97.02
2019-06-20T04:34:42.858Z,96.86
2019-06-20T04:37:13.380Z,97.24
2019-06-20T04:39:45.890Z,97.25
2019-06-20T04:42:18.601Z,97.29
2019-06-20T04:44:49.619Z,97.28
2019-06-20T04:47:20.173Z,97.20
2019-06-20T04:49:50.724Z,97.33
2019-06-20T04:52:21.345Z,97.40
2019-06-20T04:54:51.927Z,97.23
2019-06-20T04:57:23.333Z,97.26
2019-06-20T05:00:02.415Z,97.00
2019-06-20T05:02:41.272Z,97.26
2019-06-20T05:05:15.798Z,96.90
2019-06-20T05:07:46.433Z,97.09
2019-06-20T05:10:19.628Z,96.92
2019-06-20T05:12:50.270Z,96.61
2019-06-20T05:15:23.079Z,96.65
2019-06-20T05:17:53.648Z,96.60
2019-06-20T05:20:24.257Z,96.73
2019-06-20T05:22:54.865Z,96.88
2019-06-20T05:25:26.597Z,96.89
2019-06-20T05:27:57.211Z,96.70
2019-06-20T05:30:27.781Z,96.20
2019-06-20T05:32:58.388Z,96.26
2019-06-20T05:35:28.944Z,96.44
2019-06-20T05:37:59.896Z,96.16
2019-06-20T05:40:30.537Z,95.82
2019-06-20T05:43:01.106Z,95.62
2019-06-20T05:45:31.719Z,95.58
2019-06-20T05:48:02.257Z,95.52
2019-06-20T05:50:32.825Z,95.38
2019-06-20T05:53:03.428Z,95.30
2019-06-20T05:55:33.954Z,95.31
2019-06-20T05:58:04.518Z,95.20
2019-06-20T06:00:35.099Z,95.17
2019-06-20T06:03:07.141Z,94.64
2019-06-20T06:05:37.964Z,94.33
2019-06-20T06:08:08.592Z,94.32
2019-06-20T06:10:41.391Z,94.10
2019-06-20T06:13:11.933Z,93.94
2019-06-20T06:15:42.519Z,93.42
2019-06-20T06:18:14.131Z,93.11
2019-06-20T06:20:45.223Z,92.67
2019-06-20T06:23:15.984Z,92.73
2019-06-20T06:25:46.641Z,92.48
2019-06-20T06:28:17.225Z,92.19
2019-06-20T06:30:47.880Z,92.31
2019-06-20T06:33:18.623Z,91.85
2019-06-20T06:35:49.884Z,91.65
2019-06-20T06:38:22.505Z,91.45
2019-06-20T06:40:54.681Z,90.76
2019-06-20T06:43:27.822Z,90.53
2019-06-20T06:46:03.087Z,90.06
2019-06-20T06:48:36.754Z,89.91
2019-06-20T06:51:09.300Z,89.78
2019-06-20T06:53:44.483Z,89.72
2019-06-20T06:56:16.515Z,89.90
2019-06-20T06:58:47.160Z,89.98
2019-06-20T07:01:17.744Z,89.14
2019-06-20T07:03:48.256Z,88.86
2019-06-20T07:06:18.935Z,88.72
2019-06-20T07:08:49.497Z,88.23
2019-06-20T07:11:20.224Z,88.09
2019-06-20T07:13:50.821Z,88.46
2019-06-20T07:16:23.895Z,88.67
2019-06-20T07:18:55.169Z,88.66
2019-06-20T07:21:27.188Z,88.64
2019-06-20T07:23:57.789Z,87.95
2019-06-20T07:26:29.922Z,86.32
2019-06-20T07:29:00.476Z,86.78
2019-06-20T07:31:31.046Z,85.81
2019-06-20T07:34:01.590Z,85.89
2019-06-20T07:36:32.245Z,85.49
2019-06-20T07:39:02.902Z,85.64
2019-06-20T07:41:36.425Z,85.12
2019-06-20T07:44:08.471Z,84.88
2019-06-20T07:46:39.061Z,84.30
2019-06-20T07:49:10.623Z,83.65
2019-06-20T07:51:41.211Z,82.92
2019-06-20T07:54:11.797Z,82.46
2019-06-20T07:56:42.395Z,82.42
2019-06-20T07:59:12.986Z,83.14
2019-06-20T08:01:43.591Z,82.95
2019-06-20T08:04:17.040Z,82.70
2019-06-20T08:06:49.785Z,81.96
2019-06-20T08:09:22.154Z,81.93
2019-06-20T08:11:52.884Z,82.05
2019-06-20T08:14:23.599Z,82.34
2019-06-20T08:16:54.245Z,82.16
2019-06-20T08:19:24.796Z,82.44
2019-06-20T08:21:57.141Z,82.14
2019-06-20T08:24:27.683Z,82.75
2019-06-20T08:26:58.708Z,82.47
2019-06-20T08:29:29.825Z,82.37
2019-06-20T08:32:01.049Z,82.70
2019-06-20T08:34:32.755Z,82.24
2019-06-20T08:37:04.366Z,81.73
2019-06-20T08:39:35.031Z,81.82
2019-06-20T08:42:06.378Z,81.47
2019-06-20T08:44:38.216Z,81.13
2019-06-20T08:47:12.559Z,80.85
2019-06-20T08:49:44.646Z,81.11
2019-06-20T08:52:15.821Z,80.95
2019-06-20T08:54:46.443Z,80.22
2019-06-20T08:57:17.023Z,79.25
2019-06-20T08:59:49.932Z,79.40
2019-06-20T09:02:20.991Z,79.79
2019-06-20T09:04:51.678Z,79.24
2019-06-20T09:07:22.269Z,79.23
2019-06-20T09:09:53.165Z,79.57
2019-06-20T09:12:24.765Z,79.59
2019-06-20T09:14:56.827Z,78.95
2019-06-20T09:17:27.519Z,79.35
2019-06-20T09:19:58.104Z,79.00
2019-06-20T09:22:28.651Z,79.20
2019-06-20T09:24:59.177Z,79.37
2019-06-20T09:27:29.831Z,78.51
2019-06-20T09:30:00.574Z,78.58
2019-06-20T09:32:31.186Z,77.58
2019-06-20T09:35:02.917Z,77.48
2019-06-20T09:37:35.973Z,77.86
2019-06-20T09:40:07.821Z,77.13
2019-06-20T09:42:39.125Z,76.54
2019-06-20T09:45:10.225Z,76.64
2019-06-20T09:47:40.745Z,76.25
2019-06-20T09:50:11.940Z,76.04
2019-06-20T09:52:42.610Z,75.91
2019-06-20T09:55:13.908Z,77.62
2019-06-20T09:57:44.556Z,78.57
2019-06-20T10:00:18.651Z,78.86
2019-06-20T10:02:50.665Z,78.90
2019-06-20T10:05:21.863Z,78.08
2019-06-20T10:07:52.515Z,78.07
2019-06-20T10:10:29.221Z,77.38
2019-06-20T10:12:59.803Z,76.24
2019-06-20T10:15:33.226Z,76.42
2019-06-20T10:18:03.734Z,76.89
2019-06-20T10:20:34.570Z,77.55
2019-06-20T10:23:05.216Z,75.88
2019-06-20T10:25:35.756Z,76.49
2019-06-20T10:28:06.922Z,75.88
2019-06-20T10:30:37.454Z,74.44
2019-06-20T10:33:08.094Z,74.58
2019-06-20T10:35:38.608Z,73.57
2019-06-20T10:38:10.719Z,73.67
2019-06-20T10:40:41.260Z,73.41
2019-06-20T10:43:13.095Z,73.88
2019-06-20T10:45:45.837Z,74.23
2019-06-20T10:48:16.527Z,74.29
2019-06-20T10:50:47.716Z,73.85
2019-06-20T10:53:18.294Z,73.77
2019-06-20T10:55:49.081Z,73.80
2019-06-20T10:58:19.666Z,74.13
2019-06-20T11:00:50.452Z,73.68
2019-06-20T11:03:20.985Z,74.04
2019-06-20T11:05:51.497Z,73.72
2019-06-20T11:08:23.844Z,72.92
2019-06-20T11:10:54.405Z,72.64
2019-06-20T11:13:24.957Z,72.78
2019-06-20T11:15:55.575Z,72.27
2019-06-20T11:18:26.142Z,72.30
2019-06-20T11:20:56.820Z,72.58
2019-06-20T11:23:27.370Z,71.96
2019-06-20T11:25:57.939Z,71.85
2019-06-20T11:28:28.524Z,71.71
2019-06-20T11:31:00.672Z,71.69
2019-06-20T11:33:31.398Z,70.58
2019-06-20T11:36:01.988Z,69.68
2019-06-20T11:38:40.644Z,67.49
2019-06-20T11:41:11.335Z,65.86
2019-06-20T11:43:42.262Z,66.30
2019-06-20T11:46:12.780Z,65.73
2019-06-20T11:48:43.409Z,66.27
2019-06-20T11:51:14.141Z,65.94
2019-06-20T11:53:44.683Z,66.16
2019-06-20T11:56:15.278Z,65.88
2019-06-20T11:58:45.909Z,66.87
2019-06-20T12:01:16.402Z,67.10
2019-06-20T12:03:46.958Z,67.29
2019-06-20T12:06:17.587Z,66.92
2019-06-20T12:08:49.030Z,66.85
2019-06-20T12:11:19.707Z,66.51
2019-06-20T12:13:50.284Z,67.95
2019-06-20T12:16:20.939Z,68.39
2019-06-20T12:18:51.620Z,67.67
2019-06-20T12:21:24.250Z,67.24
2019-06-20T12:23:54.868Z,66.10
2019-06-20T12:26:25.428Z,65.18
2019-06-20T12:28:56.013Z,65.34
2019-06-20T12:31:26.617Z,66.11
2019-06-20T12:33:57.204Z,65.25
2019-06-20T12:36:28.961Z,65.51
2019-06-20T12:38:59.539Z,63.68
2019-06-20T12:41:30.168Z,64.49
2019-06-20T12:44:00.855Z,63.91
2019-06-20T12:46:32.599Z,62.41
2019-06-20T12:49:03.218Z,63.08
2019-06-20T12:51:33.781Z,65.34
2019-06-20T12:54:04.461Z,65.89
2019-06-20T12:56:35.025Z,67.07
2019-06-20T12:59:05.731Z,67.66
2019-06-20T13:01:40.577Z,68.09
2019-06-20T13:04:08.625Z,67.41
2019-06-20T13:06:40.481Z,66.90
2019-06-20T13:09:11.157Z,66.32
2019-06-20T13:11:42.647Z,65.76
2019-06-20T13:14:13.284Z,66.54
2019-06-20T13:16:43.918Z,67.24
2019-06-20T13:19:14.547Z,67.33
2019-06-20T13:21:48.620Z,66.93
2019-06-20T13:24:19.248Z,67.06
2019-06-20T13:26:53.979Z,67.12
2019-06-20T13:29:24.619Z,67.25
2019-06-20T13:32:03.951Z,65.61
2019-06-20T13:34:27.425Z,65.68
2019-06-20T13:36:57.982Z,64.63
2019-06-20T13:39:28.651Z,64.79
2019-06-20T13:41:59.089Z,64.74
2019-06-20T13:44:29.749Z,65.31
2019-06-20T13:47:00.288Z,65.29
2019-06-20T13:49:30.956Z,65.43
2019-06-20T13:52:01.528Z,65.51
2019-06-20T13:54:32.164Z,66.17
2019-06-20T13:57:02.746Z,65.59
2019-06-20T13:59:33.354Z,65.30
2019-06-20T14:02:06.997Z,65.02
2019-06-20T14:04:36.256Z,64.55
2019-06-20T14:07:06.868Z,64.66
2019-06-20T14:09:37.457Z,64.51
2019-06-20T14:12:08.020Z,65.56
2019-06-20T14:14:38.703Z,65.81
2019-06-20T14:17:09.304Z,65.28
2019-06-20T14:19:40.110Z,65.37
2019-06-20T14:22:10.640Z,65.04
2019-06-20T14:24:43.389Z,65.99
2019-06-20T14:27:13.616Z,65.39
2019-06-20T14:29:44.976Z,65.45
2019-06-20T14:32:22.094Z,65.70
2019-06-20T14:34:50.332Z,65.54
2019-06-20T14:37:21.038Z,65.82
2019-06-20T14:39:52.656Z,65.71
2019-06-20T14:42:23.385Z,64.72
2019-06-20T14:44:54.226Z,65.09
2019-06-20T14:47:24.886Z,64.23
2019-06-20T14:49:55.507Z,62.35
2019-06-20T14:52:28.773Z,62.99
2019-06-20T14:54:59.336Z,62.74
2019-06-20T14:57:29.903Z,63.04
2019-06-20T15:00:00.519Z,63.02
2019-06-20T15:02:38.543Z,62.78
2019-06-20T15:05:03.483Z,62.28
2019-06-20T15:07:34.098Z,61.38
2019-06-20T15:10:05.374Z,60.36
2019-06-20T15:12:35.947Z,60.19
2019-06-20T15:15:06.789Z,59.42
2019-06-20T15:17:37.343Z,59.70
2019-06-20T15:20:08.545Z,60.47
2019-06-20T15:22:39.163Z,61.37
2019-06-20T15:25:09.982Z,61.48
2019-06-20T15:27:40.639Z,62.27
2019-06-20T15:30:12.282Z,62.53
2019-06-20T15:32:55.255Z,61.70
2019-06-20T15:35:15.623Z,60.88
2019-06-20T15:37:47.678Z,60.15
2019-06-20T15:40:19.543Z,59.76
2019-06-20T15:42:51.567Z,59.22
2019-06-20T15:45:23.119Z,58.57
2019-06-20T15:47:53.761Z,58.53
2019-06-20T15:50:24.325Z,58.15
2019-06-20T15:52:54.907Z,58.15
2019-06-20T15:55:25.529Z,56.98
2019-06-20T15:57:57.770Z,57.44
2019-06-20T16:00:28.365Z,57.68
2019-06-20T16:03:09.621Z,57.68
2019-06-20T16:05:31.341Z,56.52
2019-06-20T16:08:02.072Z,56.10
2019-06-20T16:10:32.846Z,55.73
2019-06-20T16:13:03.444Z,56.85
2019-06-20T16:15:34.096Z,56.93
2019-06-20T16:18:04.659Z,57.97
2019-06-20T16:20:35.280Z,58.77
2019-06-20T16:23:05.975Z,59.41
2019-06-20T16:25:36.624Z,59.80
2019-06-20T16:28:07.201Z,60.80
2019-06-20T16:30:37.758Z,62.06
2019-06-20T16:33:08.363Z,61.62
2019-06-20T16:35:39.013Z,62.00
2019-06-20T16:38:09.611Z,61.78
2019-06-20T16:40:48.032Z,62.12
2019-06-20T16:43:18.620Z,62.53
2019-06-20T16:45:49.137Z,61.97
2019-06-20T16:48:21.533Z,61.92
2019-06-20T16:50:52.073Z,62.27
2019-06-20T16:53:22.696Z,62.93
2019-06-20T16:55:53.278Z,63.40
2019-06-20T16:58:23.906Z,63.66
2019-06-20T17:00:54.509Z,64.29
2019-06-20T17:03:40.692Z,65.23
2019-06-20T17:05:57.419Z,66.40
2019-06-20T17:08:27.992Z,66.61
2019-06-20T17:10:58.709Z,66.93
2019-06-20T17:13:29.278Z,67.07
2019-06-20T17:15:59.919Z,67.17
2019-06-20T17:18:30.504Z,67.10
2019-06-20T17:21:01.067Z,67.12
2019-06-20T17:23:31.861Z,67.42
2019-06-20T17:26:04.265Z,67.87
2019-06-20T17:28:34.857Z,68.51
2019-06-20T17:31:05.489Z,69.25
2019-06-20T17:33:36.038Z,69.75
2019-06-20T17:36:17.742Z,69.99
2019-06-20T17:38:40.198Z,70.59
2019-06-20T17:41:12.238Z,71.23
2019-06-20T17:43:44.588Z,72.26
2019-06-20T17:46:15.168Z,73.75
2019-06-20T17:48:45.799Z,74.25
2019-06-20T17:51:16.334Z,74.46
2019-06-20T17:53:49.613Z,74.32
2019-06-20T17:56:19.278Z,74.97
2019-06-20T17:58:49.875Z,75.59
2019-06-20T18:01:20.514Z,75.65
2019-06-20T18:03:51.105Z,73.93
2019-06-20T18:06:21.678Z,74.39
2019-06-20T18:08:52.323Z,75.03
2019-06-20T18:11:22.950Z,74.53
2019-06-20T18:13:53.551Z,74.11
2019-06-20T18:16:25.477Z,74.00
2019-06-20T18:18:56.162Z,73.93
2019-06-20T18:21:26.799Z,73.88
2019-06-20T18:23:57.474Z,74.21
2019-06-20T18:26:28.120Z,74.23
2019-06-20T18:28:58.655Z,74.23
2019-06-20T18:31:29.333Z,74.44
2019-06-20T18:33:59.943Z,74.37
2019-06-20T18:36:30.602Z,74.20
2019-06-20T18:39:01.151Z,74.24
2019-06-20T18:41:31.814Z,74.20
2019-06-20T18:44:02.411Z,74.41
2019-06-20T18:46:33.042Z,74.35
2019-06-20T18:49:03.626Z,74.54
2019-06-20T18:51:34.198Z,75.44
2019-06-20T18:54:05.309Z,75.62
2019-06-20T18:56:35.847Z,75.62
2019-06-20T18:59:06.538Z,75.65
2019-06-20T19:01:37.190Z,75.74
2019-06-20T19:04:07.837Z,76.57
2019-06-20T19:06:38.419Z,77.35
2019-06-20T19:09:10.497Z,77.09
2019-06-20T19:11:41.078Z,76.87
2019-06-20T19:14:12.743Z,77.27
2019-06-20T19:16:43.503Z,77.33
2019-06-20T19:19:14.026Z,77.08
2019-06-20T19:21:44.681Z,76.95
2019-06-20T19:24:15.273Z,77.48
2019-06-20T19:26:45.875Z,76.59
2019-06-20T19:29:16.497Z,76.42
2019-06-20T19:31:47.141Z,76.57
2019-06-20T19:34:17.710Z,76.75
2019-06-20T19:36:48.317Z,76.83
2019-06-20T19:39:18.939Z,76.77
2019-06-20T19:41:49.581Z,76.68
2019-06-20T19:44:20.128Z,76.95
2019-06-20T19:46:50.709Z,77.04
2019-06-20T19:49:21.375Z,77.56
2019-06-20T19:51:51.894Z,78.10
2019-06-20T19:54:22.549Z,79.03
2019-06-20T19:56:53.100Z,78.86
2019-06-20T19:59:26.254Z,78.93
2019-06-20T20:01:58.191Z,78.79
2019-06-20T20:04:28.739Z,79.62
2019-06-20T20:07:02.455Z,80.44
2019-06-20T20:09:33.086Z,80.25
2019-06-20T20:12:03.717Z,80.22
2019-06-20T20:14:36.359Z,80.57
2019-06-20T20:17:07.123Z,80.22
2019-06-20T20:19:37.696Z,80.96
2019-06-20T20:22:08.247Z,80.78
2019-06-20T20:24:38.857Z,82.29
2019-06-20T20:27:09.571Z,82.56
2019-06-20T20:29:40.202Z,84.02
2019-06-20T20:32:10.762Z,83.49
2019-06-20T20:34:41.317Z,83.67
2019-06-20T20:37:12.998Z,83.17
2019-06-20T20:39:43.541Z,84.18
2019-06-20T20:42:17.545Z,84.07
2019-06-20T20:44:46.471Z,84.33
2019-06-20T20:47:17.035Z,84.82
2019-06-20T20:49:49.771Z,84.75
2019-06-20T20:52:20.297Z,84.52
2019-06-20T20:54:50.902Z,84.61
2019-06-20T20:57:21.474Z,84.43
2019-06-20T20:59:52.105Z,84.52
2019-06-20T21:02:22.690Z,86.25
2019-06-20T21:04:53.203Z,86.70
2019-06-20T21:07:23.830Z,86.72
2019-06-20T21:09:55.731Z,87.40
2019-06-20T21:12:26.337Z,87.08
2019-06-20T21:14:56.901Z,86.50
2019-06-20T21:17:27.503Z,86.31
2019-06-20T21:19:58.075Z,86.35
2019-06-20T21:22:28.664Z,86.56
2019-06-20T21:24:59.326Z,87.17
2019-06-20T21:27:29.908Z,87.71
2019-06-20T21:30:00.611Z,88.38
2019-06-20T21:32:31.170Z,88.00
2019-06-20T21:35:01.788Z,87.84
2019-06-20T21:37:32.386Z,88.27
2019-06-20T21:40:03.064Z,88.62
2019-06-20T21:42:33.604Z,88.43
2019-06-20T21:45:04.549Z,88.04
2019-06-20T21:47:35.164Z,88.97
2019-06-20T21:50:06.320Z,89.62
2019-06-20T21:52:37.001Z,90.47
2019-06-20T21:55:07.814Z,90.29
2019-06-20T21:57:40.184Z,89.83
2019-06-20T22:00:19.244Z,89.27
2019-06-20T22:02:49.882Z,89.37
2019-06-20T22:05:20.416Z,89.15
2019-06-20T22:07:51.039Z,89.19
2019-06-20T22:10:21.971Z,88.94
2019-06-20T22:12:52.544Z,89.10
2019-06-20T22:15:23.274Z,88.74
2019-06-20T22:17:56.613Z,88.61
2019-06-20T22:20:27.423Z,88.81
2019-06-20T22:22:57.999Z,88.66
2019-06-20T22:25:28.718Z,90.07
2019-06-20T22:27:59.241Z,90.44
2019-06-20T22:30:50.276Z,89.83
2019-06-20T22:33:20.863Z,89.21
2019-06-20T22:35:52.395Z,88.98
2019-06-20T22:38:23.063Z,89.99
2019-06-20T22:40:53.760Z,90.27
2019-06-20T22:43:24.321Z,90.15
2019-06-20T22:45:55.035Z,89.79
2019-06-20T22:48:26.622Z,89.64
2019-06-20T22:50:58.552Z,89.42
2019-06-20T22:53:29.093Z,90.03
2019-06-20T22:55:59.586Z,90.21
2019-06-20T22:58:34.320Z,90.24
2019-06-20T23:01:04.970Z,90.09
2019-06-20T23:03:35.743Z,89.94
2019-06-20T23:06:06.296Z,89.97
2019-06-20T23:08:36.924Z,90.62
2019-06-20T23:11:07.461Z,91.26
2019-06-20T23:13:38.063Z,92.49
2019-06-20T23:16:08.755Z,92.37
2019-06-20T23:18:39.304Z,91.62
2019-06-20T23:21:09.912Z,91.21
2019-06-20T23:23:40.431Z,91.61
2019-06-20T23:26:12.414Z,91.89
2019-06-20T23:28:42.952Z,91.58
2019-06-20T23:31:13.564Z,91.47
2019-06-20T23:33:45.063Z,91.59
2019-06-20T23:36:17.748Z,91.84
2019-06-20T23:38:50.266Z,92.11
2019-06-20T23:41:23.038Z,92.93
2019-06-20T23:43:53.629Z,93.78
2019-06-20T23:46:25.744Z,95.17
2019-06-20T23:48:56.354Z,96.54
2019-06-20T23:51:28.580Z,96.24
2019-06-20T23:54:00.720Z,95.56
2019-06-20T23:56:31.235Z,96.18
2019-06-20T23:59:01.789Z,95.95
